Mc Entire JNGB Airport Eastover US
ICAO: KMMT
IATA: MMT
Category: Medium
Scheduled Services: No

Elevation: 254 ft
TransAlt. 18000 ft.

Airport Communications:
SHAW APP/DEP:125.4
CTAF:132.4
GND:127.625
ARNG OPS PTD:41.3
ANG OPS PTD:125.12
PMSV METRO:34.25
PTD:29.83
TWR:132.4

KMMT Zoom In..

Runways:

(A) RW 05 length 2033 ft width 90 ft
---- / hdg 49

(B) RW 14 length 9010 ft width 150 ft
---- / hdg 139

(C) RW 23 length 2033 ft width 90 ft
---- / hdg 229

(D) RW 32 length 9010 ft width 150 ft
ILS 111.10 / hdg 319

Location; KMMT
Day. 24 / Time. 01.56 Zulu
* Altimeter: 30.00
* Temperature: 12° c. 53.6°f.
* Wind from: 250° Speed 09 kn.
Dewpoint: -01° c.
Visibility: 10 Statute Miles.
Clouds: Clear (automated report).

KMMT 240156Z 25009KT 10SM CLR 12/M01 A3000 RMK AO2A SLP161 T01151007 $


Wind From 250°
Speed 09 kn.

YouTube Music Video
 
jpsmedia.com for Web Design  worldairports.se 2018   terms of use